sensor_id;sensor_type;location;lat;lon;timestamp;P1;durP1;ratioP1;P2;durP2;ratioP2
57155;SDS011;43023;59.928;10.682;2023-02-25T00:00:25;3.35;;;0.52;;
57155;SDS011;43023;59.928;10.682;2023-02-25T00:02:54;1.45;;;0.60;;
57155;SDS011;43023;59.928;10.682;2023-02-25T00:05:21;0.90;;;0.55;;
57155;SDS011;43023;59.928;10.682;2023-02-25T00:07:47;1.05;;;0.40;;
57155;SDS011;43023;59.928;10.682;2023-02-25T00:10:13;1.75;;;0.30;;
57155;SDS011;43023;59.928;10.682;2023-02-25T00:12:39;2.00;;;0.63;;
57155;SDS011;43023;59.928;10.682;2023-02-25T00:15:06;1.90;;;0.60;;
57155;SDS011;43023;59.928;10.682;2023-02-25T00:17:32;2.03;;;0.55;;
57155;SDS011;43023;59.928;10.682;2023-02-25T00:19:58;1.13;;;0.47;;
57155;SDS011;43023;59.928;10.682;2023-02-25T00:22:25;1.17;;;0.40;;
57155;SDS011;43023;59.928;10.682;2023-02-25T00:24:55;2.28;;;0.50;;
57155;SDS011;43023;59.928;10.682;2023-02-25T00:27:22;1.80;;;0.50;;
57155;SDS011;43023;59.928;10.682;2023-02-25T00:29:52;3.20;;;0.65;;
57155;SDS011;43023;59.928;10.682;2023-02-25T00:32:18;2.30;;;0.80;;
57155;SDS011;43023;59.928;10.682;2023-02-25T00:34:45;1.27;;;0.63;;
57155;SDS011;43023;59.928;10.682;2023-02-25T00:37:11;1.40;;;0.40;;
57155;SDS011;43023;59.928;10.682;2023-02-25T00:39:37;2.05;;;0.75;;
57155;SDS011;43023;59.928;10.682;2023-02-25T00:42:25;0.93;;;0.40;;
57155;SDS011;43023;59.928;10.682;2023-02-25T00:44:51;1.77;;;0.60;;
57155;SDS011;43023;59.928;10.682;2023-02-25T00:47:18;0.70;;;0.22;;
57155;SDS011;43023;59.928;10.682;2023-02-25T00:49:47;2.20;;;0.63;;
57155;SDS011;43023;59.928;10.682;2023-02-25T00:52:13;1.13;;;0.50;;
57155;SDS011;43023;59.928;10.682;2023-02-25T00:54:40;2.00;;;0.70;;
57155;SDS011;43023;59.928;10.682;2023-02-25T00:57:06;1.65;;;0.80;;
57155;SDS011;43023;59.928;10.682;2023-02-25T00:59:32;3.35;;;0.50;;
57155;SDS011;43023;59.928;10.682;2023-02-25T01:01:58;2.33;;;0.60;;
57155;SDS011;43023;59.928;10.682;2023-02-25T01:04:24;2.15;;;0.73;;
57155;SDS011;43023;59.928;10.682;2023-02-25T01:06:50;1.25;;;0.50;;
57155;SDS011;43023;59.928;10.682;2023-02-25T01:09:18;0.90;;;0.32;;
57155;SDS011;43023;59.928;10.682;2023-02-25T01:11:44;1.65;;;0.70;;
57155;SDS011;43023;59.928;10.682;2023-02-25T01:14:18;2.10;;;0.73;;
57155;SDS011;43023;59.928;10.682;2023-02-25T01:16:45;1.45;;;0.70;;
57155;SDS011;43023;59.928;10.682;2023-02-25T01:19:14;2.25;;;0.60;;
57155;SDS011;43023;59.928;10.682;2023-02-25T01:21:41;1.80;;;0.70;;
57155;SDS011;43023;59.928;10.682;2023-02-25T01:24:12;1.25;;;0.52;;
57155;SDS011;43023;59.928;10.682;2023-02-25T01:26:38;2.35;;;0.70;;
57155;SDS011;43023;59.928;10.682;2023-02-25T01:29:10;1.55;;;0.75;;
57155;SDS011;43023;59.928;10.682;2023-02-25T01:31:36;0.88;;;0.70;;
57155;SDS011;43023;59.928;10.682;2023-02-25T01:34:03;2.55;;;1.10;;
57155;SDS011;43023;59.928;10.682;2023-02-25T01:36:29;2.13;;;1.10;;
57155;SDS011;43023;59.928;10.682;2023-02-25T01:38:56;1.73;;;0.98;;
57155;SDS011;43023;59.928;10.682;2023-02-25T01:41:23;2.10;;;1.20;;
57155;SDS011;43023;59.928;10.682;2023-02-25T01:46:35;1.92;;;0.80;;
57155;SDS011;43023;59.928;10.682;2023-02-25T01:49:02;1.88;;;0.80;;
57155;SDS011;43023;59.928;10.682;2023-02-25T01:51:30;1.73;;;1.10;;
57155;SDS011;43023;59.928;10.682;2023-02-25T01:53:56;2.30;;;1.02;;
57155;SDS011;43023;59.928;10.682;2023-02-25T01:56:24;3.13;;;0.77;;
57155;SDS011;43023;59.928;10.682;2023-02-25T01:58:51;1.05;;;0.70;;
57155;SDS011;43023;59.928;10.682;2023-02-25T02:01:19;2.45;;;0.70;;
57155;SDS011;43023;59.928;10.682;2023-02-25T02:03:45;1.73;;;0.80;;
57155;SDS011;43023;59.928;10.682;2023-02-25T02:06:14;1.35;;;0.77;;
57155;SDS011;43023;59.928;10.682;2023-02-25T02:08:41;0.98;;;0.60;;
57155;SDS011;43023;59.928;10.682;2023-02-25T02:11:08;1.30;;;0.90;;
57155;SDS011;43023;59.928;10.682;2023-02-25T02:13:35;0.70;;;0.50;;
57155;SDS011;43023;59.928;10.682;2023-02-25T02:18:41;0.82;;;0.50;;
57155;SDS011;43023;59.928;10.682;2023-02-25T02:24:03;0.88;;;0.52;;
57155;SDS011;43023;59.928;10.682;2023-02-25T02:31:37;1.23;;;0.50;;
57155;SDS011;43023;59.928;10.682;2023-02-25T02:34:14;2.20;;;0.60;;
57155;SDS011;43023;59.928;10.682;2023-02-25T02:39:12;2.00;;;0.68;;
57155;SDS011;43023;59.928;10.682;2023-02-25T02:41:45;1.08;;;0.50;;
57155;SDS011;43023;59.928;10.682;2023-02-25T02:46:40;0.70;;;0.57;;
57155;SDS011;43023;59.928;10.682;2023-02-25T02:49:11;0.75;;;0.50;;
57155;SDS011;43023;59.928;10.682;2023-02-25T02:51:44;1.23;;;0.55;;
57155;SDS011;43023;59.928;10.682;2023-02-25T02:54:12;2.63;;;0.60;;
57155;SDS011;43023;59.928;10.682;2023-02-25T02:56:40;1.20;;;0.60;;
57155;SDS011;43023;59.928;10.682;2023-02-25T02:59:09;0.50;;;0.40;;
57155;SDS011;43023;59.928;10.682;2023-02-25T03:01:45;0.80;;;0.50;;
57155;SDS011;43023;59.928;10.682;2023-02-25T03:04:16;1.00;;;0.70;;
57155;SDS011;43023;59.928;10.682;2023-02-25T03:06:44;1.63;;;0.57;;
57155;SDS011;43023;59.928;10.682;2023-02-25T03:09:18;0.75;;;0.43;;
57155;SDS011;43023;59.928;10.682;2023-02-25T03:11:46;0.60;;;0.40;;
57155;SDS011;43023;59.928;10.682;2023-02-25T03:14:12;0.77;;;0.60;;
57155;SDS011;43023;59.928;10.682;2023-02-25T03:16:44;0.32;;;0.30;;
57155;SDS011;43023;59.928;10.682;2023-02-25T03:21:40;1.33;;;0.50;;
57155;SDS011;43023;59.928;10.682;2023-02-25T03:24:07;0.90;;;0.30;;
57155;SDS011;43023;59.928;10.682;2023-02-25T03:26:35;1.00;;;0.35;;
57155;SDS011;43023;59.928;10.682;2023-02-25T03:29:08;0.30;;;0.30;;
57155;SDS011;43023;59.928;10.682;2023-02-25T03:31:36;1.15;;;0.38;;
57155;SDS011;43023;59.928;10.682;2023-02-25T03:34:09;0.68;;;0.45;;
57155;SDS011;43023;59.928;10.682;2023-02-25T03:36:37;0.73;;;0.43;;
57155;SDS011;43023;59.928;10.682;2023-02-25T03:39:07;0.50;;;0.50;;
57155;SDS011;43023;59.928;10.682;2023-02-25T03:41:35;1.45;;;0.55;;
57155;SDS011;43023;59.928;10.682;2023-02-25T03:44:03;0.30;;;0.30;;
57155;SDS011;43023;59.928;10.682;2023-02-25T03:46:32;0.98;;;0.50;;
57155;SDS011;43023;59.928;10.682;2023-02-25T03:49:00;0.43;;;0.25;;
57155;SDS011;43023;59.928;10.682;2023-02-25T03:51:29;0.25;;;0.22;;
57155;SDS011;43023;59.928;10.682;2023-02-25T03:53:56;0.82;;;0.40;;
57155;SDS011;43023;59.928;10.682;2023-02-25T03:56:22;1.38;;;0.52;;
57155;SDS011;43023;59.928;10.682;2023-02-25T03:58:48;1.55;;;0.43;;
57155;SDS011;43023;59.928;10.682;2023-02-25T04:01:25;0.93;;;0.40;;
57155;SDS011;43023;59.928;10.682;2023-02-25T04:03:52;0.57;;;0.30;;
57155;SDS011;43023;59.928;10.682;2023-02-25T04:06:21;0.47;;;0.22;;
57155;SDS011;43023;59.928;10.682;2023-02-25T04:08:48;1.23;;;0.40;;
57155;SDS011;43023;59.928;10.682;2023-02-25T04:11:14;0.38;;;0.17;;
57155;SDS011;43023;59.928;10.682;2023-02-25T04:13:40;0.98;;;0.40;;
57155;SDS011;43023;59.928;10.682;2023-02-25T04:16:06;0.73;;;0.40;;
57155;SDS011;43023;59.928;10.682;2023-02-25T04:18:32;0.60;;;0.45;;
57155;SDS011;43023;59.928;10.682;2023-02-25T04:20:59;0.47;;;0.22;;
57155;SDS011;43023;59.928;10.682;2023-02-25T04:23:25;0.60;;;0.30;;
57155;SDS011;43023;59.928;10.682;2023-02-25T04:25:51;0.77;;;0.30;;
57155;SDS011;43023;59.928;10.682;2023-02-25T04:28:17;0.75;;;0.20;;
57155;SDS011;43023;59.928;10.682;2023-02-25T04:30:43;0.52;;;0.35;;
57155;SDS011;43023;59.928;10.682;2023-02-25T04:33:10;0.32;;;0.17;;
57155;SDS011;43023;59.928;10.682;2023-02-25T04:35:36;0.28;;;0.10;;
57155;SDS011;43023;59.928;10.682;2023-02-25T04:38:02;0.40;;;0.30;;
57155;SDS011;43023;59.928;10.682;2023-02-25T04:40:28;0.45;;;0.20;;
57155;SDS011;43023;59.928;10.682;2023-02-25T04:42:54;0.57;;;0.20;;
57155;SDS011;43023;59.928;10.682;2023-02-25T04:45:21;0.10;;;0.10;;
57155;SDS011;43023;59.928;10.682;2023-02-25T04:47:50;0.30;;;0.10;;
57155;SDS011;43023;59.928;10.682;2023-02-25T04:50:17;0.38;;;0.28;;
57155;SDS011;43023;59.928;10.682;2023-02-25T04:52:43;0.63;;;0.20;;
57155;SDS011;43023;59.928;10.682;2023-02-25T04:55:09;0.60;;;0.30;;
57155;SDS011;43023;59.928;10.682;2023-02-25T04:57:36;0.17;;;0.10;;
57155;SDS011;43023;59.928;10.682;2023-02-25T05:00:15;0.20;;;0.20;;
57155;SDS011;43023;59.928;10.682;2023-02-25T05:02:43;0.30;;;0.30;;
57155;SDS011;43023;59.928;10.682;2023-02-25T05:05:09;0.30;;;0.30;;
57155;SDS011;43023;59.928;10.682;2023-02-25T05:07:35;0.30;;;0.10;;
57155;SDS011;43023;59.928;10.682;2023-02-25T05:10:02;0.20;;;0.10;;
57155;SDS011;43023;59.928;10.682;2023-02-25T05:12:29;0.20;;;0.20;;
57155;SDS011;43023;59.928;10.682;2023-02-25T05:14:55;0.13;;;0.10;;
57155;SDS011;43023;59.928;10.682;2023-02-25T05:17:21;0.95;;;0.35;;
57155;SDS011;43023;59.928;10.682;2023-02-25T05:19:47;0.10;;;0.10;;
57155;SDS011;43023;59.928;10.682;2023-02-25T05:22:13;0.88;;;0.20;;
57155;SDS011;43023;59.928;10.682;2023-02-25T05:24:39;1.25;;;0.30;;
57155;SDS011;43023;59.928;10.682;2023-02-25T05:27:05;0.22;;;0.20;;
57155;SDS011;43023;59.928;10.682;2023-02-25T05:29:34;0.57;;;0.20;;
57155;SDS011;43023;59.928;10.682;2023-02-25T05:32:00;0.35;;;0.28;;
57155;SDS011;43023;59.928;10.682;2023-02-25T05:34:26;0.20;;;0.10;;
57155;SDS011;43023;59.928;10.682;2023-02-25T05:36:52;0.90;;;0.32;;
57155;SDS011;43023;59.928;10.682;2023-02-25T05:39:18;0.22;;;0.10;;
57155;SDS011;43023;59.928;10.682;2023-02-25T05:41:44;0.20;;;0.13;;
57155;SDS011;43023;59.928;10.682;2023-02-25T05:44:11;0.35;;;0.20;;
57155;SDS011;43023;59.928;10.682;2023-02-25T05:46:37;0.40;;;0.40;;
57155;SDS011;43023;59.928;10.682;2023-02-25T05:49:03;0.22;;;0.22;;
57155;SDS011;43023;59.928;10.682;2023-02-25T05:51:29;0.20;;;0.08;;
57155;SDS011;43023;59.928;10.682;2023-02-25T05:53:55;0.20;;;0.20;;
57155;SDS011;43023;59.928;10.682;2023-02-25T05:56:22;0.20;;;0.20;;
57155;SDS011;43023;59.928;10.682;2023-02-25T05:58:52;0.00;;;0.00;;
57155;SDS011;43023;59.928;10.682;2023-02-25T06:01:19;0.20;;;0.10;;
57155;SDS011;43023;59.928;10.682;2023-02-25T06:03:47;0.10;;;0.10;;
57155;SDS011;43023;59.928;10.682;2023-02-25T06:06:14;0.20;;;0.03;;
57155;SDS011;43023;59.928;10.682;2023-02-25T06:08:41;0.10;;;0.10;;
57155;SDS011;43023;59.928;10.682;2023-02-25T06:11:08;2.08;;;0.22;;
57155;SDS011;43023;59.928;10.682;2023-02-25T06:13:35;0.10;;;0.10;;
57155;SDS011;43023;59.928;10.682;2023-02-25T06:16:04;0.38;;;0.20;;
57155;SDS011;43023;59.928;10.682;2023-02-25T06:18:31;0.20;;;0.13;;
57155;SDS011;43023;59.928;10.682;2023-02-25T06:21:10;0.38;;;0.10;;
57155;SDS011;43023;59.928;10.682;2023-02-25T06:23:37;0.10;;;0.10;;
57155;SDS011;43023;59.928;10.682;2023-02-25T06:26:04;0.32;;;0.20;;
57155;SDS011;43023;59.928;10.682;2023-02-25T06:28:32;0.52;;;0.20;;
57155;SDS011;43023;59.928;10.682;2023-02-25T06:30:58;0.10;;;0.10;;
57155;SDS011;43023;59.928;10.682;2023-02-25T06:33:24;0.35;;;0.35;;
57155;SDS011;43023;59.928;10.682;2023-02-25T06:35:51;0.10;;;0.10;;
57155;SDS011;43023;59.928;10.682;2023-02-25T06:38:17;0.70;;;0.20;;
57155;SDS011;43023;59.928;10.682;2023-02-25T06:40:44;0.15;;;0.10;;
57155;SDS011;43023;59.928;10.682;2023-02-25T06:43:10;0.50;;;0.10;;
57155;SDS011;43023;59.928;10.682;2023-02-25T06:45:36;0.28;;;0.28;;
57155;SDS011;43023;59.928;10.682;2023-02-25T06:48:02;0.50;;;0.10;;
57155;SDS011;43023;59.928;10.682;2023-02-25T06:50:29;0.70;;;0.10;;
57155;SDS011;43023;59.928;10.682;2023-02-25T06:52:56;0.28;;;0.13;;
57155;SDS011;43023;59.928;10.682;2023-02-25T06:55:22;0.25;;;0.17;;
57155;SDS011;43023;59.928;10.682;2023-02-25T06:57:48;0.05;;;0.03;;
57155;SDS011;43023;59.928;10.682;2023-02-25T07:00:14;0.13;;;0.10;;
57155;SDS011;43023;59.928;10.682;2023-02-25T07:02:40;0.03;;;0.03;;
57155;SDS011;43023;59.928;10.682;2023-02-25T07:05:07;0.35;;;0.13;;
57155;SDS011;43023;59.928;10.682;2023-02-25T07:07:33;0.10;;;0.05;;
57155;SDS011;43023;59.928;10.682;2023-02-25T07:09:59;0.45;;;0.10;;
57155;SDS011;43023;59.928;10.682;2023-02-25T07:12:25;0.00;;;0.00;;
57155;SDS011;43023;59.928;10.682;2023-02-25T07:14:51;0.00;;;0.00;;
57155;SDS011;43023;59.928;10.682;2023-02-25T07:17:17;0.05;;;0.00;;
57155;SDS011;43023;59.928;10.682;2023-02-25T07:19:43;0.60;;;0.20;;
57155;SDS011;43023;59.928;10.682;2023-02-25T07:22:13;0.10;;;0.10;;
57155;SDS011;43023;59.928;10.682;2023-02-25T07:24:40;0.20;;;0.10;;
57155;SDS011;43023;59.928;10.682;2023-02-25T07:27:06;0.00;;;0.00;;
57155;SDS011;43023;59.928;10.682;2023-02-25T07:29:32;0.90;;;0.10;;
57155;SDS011;43023;59.928;10.682;2023-02-25T07:31:58;0.10;;;0.10;;
57155;SDS011;43023;59.928;10.682;2023-02-25T07:34:25;0.35;;;0.10;;
57155;SDS011;43023;59.928;10.682;2023-02-25T07:36:51;0.10;;;0.03;;
57155;SDS011;43023;59.928;10.682;2023-02-25T07:39:17;1.10;;;0.20;;
57155;SDS011;43023;59.928;10.682;2023-02-25T07:41:43;0.75;;;0.13;;
57155;SDS011;43023;59.928;10.682;2023-02-25T07:44:10;0.38;;;0.03;;
57155;SDS011;43023;59.928;10.682;2023-02-25T07:46:36;0.10;;;0.03;;
57155;SDS011;43023;59.928;10.682;2023-02-25T07:49:03;0.30;;;0.28;;
57155;SDS011;43023;59.928;10.682;2023-02-25T07:51:29;0.20;;;0.20;;
57155;SDS011;43023;59.928;10.682;2023-02-25T07:53:56;0.40;;;0.10;;
57155;SDS011;43023;59.928;10.682;2023-02-25T07:56:23;1.65;;;0.40;;
57155;SDS011;43023;59.928;10.682;2023-02-25T07:58:49;0.28;;;0.20;;
57155;SDS011;43023;59.928;10.682;2023-02-25T08:03:47;2.05;;;0.40;;
57155;SDS011;43023;59.928;10.682;2023-02-25T08:06:13;4.20;;;0.35;;
57155;SDS011;43023;59.928;10.682;2023-02-25T08:08:39;2.45;;;0.22;;
57155;SDS011;43023;59.928;10.682;2023-02-25T08:11:06;5.13;;;0.30;;
57155;SDS011;43023;59.928;10.682;2023-02-25T08:13:33;1.52;;;0.30;;
57155;SDS011;43023;59.928;10.682;2023-02-25T08:15:59;3.13;;;0.70;;
57155;SDS011;43023;59.928;10.682;2023-02-25T08:18:28;1.67;;;0.28;;
57155;SDS011;43023;59.928;10.682;2023-02-25T08:20:54;4.72;;;0.30;;
57155;SDS011;43023;59.928;10.682;2023-02-25T08:23:22;1.88;;;0.20;;
57155;SDS011;43023;59.928;10.682;2023-02-25T08:25:51;1.27;;;0.20;;
57155;SDS011;43023;59.928;10.682;2023-02-25T08:28:19;1.55;;;0.30;;
57155;SDS011;43023;59.928;10.682;2023-02-25T08:30:45;0.93;;;0.10;;
57155;SDS011;43023;59.928;10.682;2023-02-25T08:33:11;1.60;;;0.40;;
57155;SDS011;43023;59.928;10.682;2023-02-25T08:35:37;2.17;;;0.60;;
57155;SDS011;43023;59.928;10.682;2023-02-25T08:38:03;7.80;;;0.40;;
57155;SDS011;43023;59.928;10.682;2023-02-25T08:40:30;4.18;;;0.30;;
57155;SDS011;43023;59.928;10.682;2023-02-25T08:42:56;1.08;;;0.40;;
57155;SDS011;43023;59.928;10.682;2023-02-25T08:45:22;0.35;;;0.20;;
57155;SDS011;43023;59.928;10.682;2023-02-25T08:47:48;1.13;;;0.45;;
57155;SDS011;43023;59.928;10.682;2023-02-25T08:50:14;2.97;;;0.82;;
57155;SDS011;43023;59.928;10.682;2023-02-25T08:52:42;0.30;;;0.10;;
57155;SDS011;43023;59.928;10.682;2023-02-25T08:55:08;0.90;;;0.20;;
57155;SDS011;43023;59.928;10.682;2023-02-25T08:57:38;4.13;;;0.50;;
57155;SDS011;43023;59.928;10.682;2023-02-25T09:00:06;2.08;;;0.38;;
57155;SDS011;43023;59.928;10.682;2023-02-25T09:02:34;1.13;;;0.20;;
57155;SDS011;43023;59.928;10.682;2023-02-25T09:05:00;1.55;;;0.20;;
57155;SDS011;43023;59.928;10.682;2023-02-25T09:07:28;0.95;;;0.15;;
57155;SDS011;43023;59.928;10.682;2023-02-25T09:09:54;1.58;;;0.20;;
57155;SDS011;43023;59.928;10.682;2023-02-25T09:12:20;1.00;;;0.35;;
57155;SDS011;43023;59.928;10.682;2023-02-25T09:14:46;2.55;;;0.30;;
57155;SDS011;43023;59.928;10.682;2023-02-25T09:17:13;1.00;;;0.15;;
57155;SDS011;43023;59.928;10.682;2023-02-25T09:19:39;3.55;;;0.30;;
57155;SDS011;43023;59.928;10.682;2023-02-25T09:22:05;1.35;;;0.30;;
57155;SDS011;43023;59.928;10.682;2023-02-25T09:24:32;1.25;;;0.30;;
57155;SDS011;43023;59.928;10.682;2023-02-25T09:26:59;1.25;;;0.15;;
57155;SDS011;43023;59.928;10.682;2023-02-25T09:29:26;1.08;;;0.30;;
57155;SDS011;43023;59.928;10.682;2023-02-25T09:31:52;0.35;;;0.20;;
57155;SDS011;43023;59.928;10.682;2023-02-25T09:34:18;0.73;;;0.20;;
57155;SDS011;43023;59.928;10.682;2023-02-25T09:36:45;0.90;;;0.25;;
57155;SDS011;43023;59.928;10.682;2023-02-25T09:39:11;2.60;;;0.40;;
57155;SDS011;43023;59.928;10.682;2023-02-25T09:44:20;0.40;;;0.20;;
57155;SDS011;43023;59.928;10.682;2023-02-25T09:54:41;0.52;;;0.13;;
57155;SDS011;43023;59.928;10.682;2023-02-25T09:57:09;3.47;;;0.52;;
57155;SDS011;43023;59.928;10.682;2023-02-25T09:59:37;0.88;;;0.20;;
57155;SDS011;43023;59.928;10.682;2023-02-25T10:10:37;0.40;;;0.30;;
57155;SDS011;43023;59.928;10.682;2023-02-25T10:13:12;5.28;;;0.57;;
57155;SDS011;43023;59.928;10.682;2023-02-25T10:20:56;2.85;;;0.57;;
57155;SDS011;43023;59.928;10.682;2023-02-25T10:26:34;0.52;;;0.10;;
57155;SDS011;43023;59.928;10.682;2023-02-25T10:28:59;1.42;;;0.30;;
57155;SDS011;43023;59.928;10.682;2023-02-25T10:31:28;3.67;;;0.30;;
57155;SDS011;43023;59.928;10.682;2023-02-25T10:33:54;1.00;;;0.20;;
57155;SDS011;43023;59.928;10.682;2023-02-25T10:36:35;1.33;;;0.20;;
57155;SDS011;43023;59.928;10.682;2023-02-25T10:39:03;2.35;;;0.20;;
57155;SDS011;43023;59.928;10.682;2023-02-25T10:41:29;0.98;;;0.20;;
57155;SDS011;43023;59.928;10.682;2023-02-25T10:43:56;3.78;;;0.10;;
57155;SDS011;43023;59.928;10.682;2023-02-25T10:49:02;0.30;;;0.10;;
57155;SDS011;43023;59.928;10.682;2023-02-25T10:51:28;0.22;;;0.20;;
57155;SDS011;43023;59.928;10.682;2023-02-25T10:56:21;3.80;;;0.45;;
57155;SDS011;43023;59.928;10.682;2023-02-25T10:59:09;0.40;;;0.20;;
57155;SDS011;43023;59.928;10.682;2023-02-25T11:01:46;0.93;;;0.30;;
57155;SDS011;43023;59.928;10.682;2023-02-25T11:04:14;0.95;;;0.32;;
57155;SDS011;43023;59.928;10.682;2023-02-25T11:06:41;0.40;;;0.10;;
57155;SDS011;43023;59.928;10.682;2023-02-25T11:09:50;3.92;;;0.20;;
57155;SDS011;43023;59.928;10.682;2023-02-25T11:12:09;0.52;;;0.20;;
57155;SDS011;43023;59.928;10.682;2023-02-25T11:14:37;0.93;;;0.20;;
57155;SDS011;43023;59.928;10.682;2023-02-25T11:19:39;2.05;;;0.20;;
57155;SDS011;43023;59.928;10.682;2023-02-25T11:22:09;0.20;;;0.10;;
57155;SDS011;43023;59.928;10.682;2023-02-25T11:24:40;11.93;;;0.73;;
57155;SDS011;43023;59.928;10.682;2023-02-25T11:27:24;1.10;;;0.20;;
57155;SDS011;43023;59.928;10.682;2023-02-25T11:29:52;0.60;;;0.43;;
57155;SDS011;43023;59.928;10.682;2023-02-25T11:32:21;0.22;;;0.10;;
57155;SDS011;43023;59.928;10.682;2023-02-25T11:35:34;2.55;;;0.28;;
57155;SDS011;43023;59.928;10.682;2023-02-25T11:40:01;1.10;;;0.30;;
57155;SDS011;43023;59.928;10.682;2023-02-25T11:42:32;0.77;;;0.30;;
57155;SDS011;43023;59.928;10.682;2023-02-25T11:44:58;6.60;;;0.50;;
57155;SDS011;43023;59.928;10.682;2023-02-25T11:47:29;1.45;;;0.30;;
57155;SDS011;43023;59.928;10.682;2023-02-25T11:50:08;2.30;;;0.30;;
57155;SDS011;43023;59.928;10.682;2023-02-25T11:52:39;4.13;;;0.20;;
57155;SDS011;43023;59.928;10.682;2023-02-25T12:07:59;2.53;;;0.28;;
57155;SDS011;43023;59.928;10.682;2023-02-25T12:20:47;0.63;;;0.20;;
57155;SDS011;43023;59.928;10.682;2023-02-25T12:56:57;0.77;;;0.15;;
57155;SDS011;43023;59.928;10.682;2023-02-25T12:59:49;1.20;;;0.20;;
57155;SDS011;43023;59.928;10.682;2023-02-25T13:15:09;0.77;;;0.40;;
57155;SDS011;43023;59.928;10.682;2023-02-25T13:17:45;0.77;;;0.20;;
57155;SDS011;43023;59.928;10.682;2023-02-25T13:22:52;0.65;;;0.43;;
57155;SDS011;43023;59.928;10.682;2023-02-25T13:25:29;1.75;;;0.32;;
57155;SDS011;43023;59.928;10.682;2023-02-25T13:30:32;0.47;;;0.22;;
57155;SDS011;43023;59.928;10.682;2023-02-25T13:33:18;1.65;;;0.30;;
57155;SDS011;43023;59.928;10.682;2023-02-25T14:08:00;1.77;;;0.30;;
57155;SDS011;43023;59.928;10.682;2023-02-25T14:10:36;0.93;;;0.25;;
57155;SDS011;43023;59.928;10.682;2023-02-25T14:18:34;1.30;;;0.32;;
57155;SDS011;43023;59.928;10.682;2023-02-25T14:31:16;1.88;;;0.30;;
57155;SDS011;43023;59.928;10.682;2023-02-25T14:44:06;1.15;;;0.30;;
57155;SDS011;43023;59.928;10.682;2023-02-25T14:46:48;2.80;;;0.10;;
57155;SDS011;43023;59.928;10.682;2023-02-25T14:49:19;0.52;;;0.20;;
57155;SDS011;43023;59.928;10.682;2023-02-25T14:52:00;0.32;;;0.10;;
57155;SDS011;43023;59.928;10.682;2023-02-25T14:57:33;1.65;;;0.20;;
57155;SDS011;43023;59.928;10.682;2023-02-25T15:05:30;0.03;;;0.03;;
57155;SDS011;43023;59.928;10.682;2023-02-25T15:21:44;1.52;;;0.15;;
57155;SDS011;43023;59.928;10.682;2023-02-25T15:26:58;3.17;;;0.38;;
57155;SDS011;43023;59.928;10.682;2023-02-25T15:32:10;1.67;;;0.30;;
57155;SDS011;43023;59.928;10.682;2023-02-25T15:34:37;0.10;;;0.10;;
57155;SDS011;43023;59.928;10.682;2023-02-25T15:37:23;2.45;;;0.00;;
57155;SDS011;43023;59.928;10.682;2023-02-25T15:39:52;0.10;;;0.10;;
57155;SDS011;43023;59.928;10.682;2023-02-25T15:42:37;0.20;;;0.10;;
57155;SDS011;43023;59.928;10.682;2023-02-25T15:47:48;2.42;;;0.22;;
57155;SDS011;43023;59.928;10.682;2023-02-25T16:03:26;1.00;;;0.45;;
57155;SDS011;43023;59.928;10.682;2023-02-25T16:05:53;2.63;;;0.50;;
57155;SDS011;43023;59.928;10.682;2023-02-25T16:08:23;3.35;;;0.73;;
57155;SDS011;43023;59.928;10.682;2023-02-25T16:10:53;1.58;;;0.52;;
57155;SDS011;43023;59.928;10.682;2023-02-25T16:13:22;9.32;;;0.65;;
57155;SDS011;43023;59.928;10.682;2023-02-25T16:15:51;3.03;;;0.43;;
57155;SDS011;43023;59.928;10.682;2023-02-25T16:20:45;4.32;;;0.60;;
57155;SDS011;43023;59.928;10.682;2023-02-25T16:23:13;4.95;;;0.90;;
57155;SDS011;43023;59.928;10.682;2023-02-25T16:28:31;2.90;;;0.82;;
57155;SDS011;43023;59.928;10.682;2023-02-25T16:31:03;1.70;;;0.65;;
57155;SDS011;43023;59.928;10.682;2023-02-25T16:34:13;3.53;;;1.02;;
57155;SDS011;43023;59.928;10.682;2023-02-25T16:37:03;3.03;;;0.85;;
57155;SDS011;43023;59.928;10.682;2023-02-25T16:39:17;2.38;;;0.70;;
57155;SDS011;43023;59.928;10.682;2023-02-25T16:41:44;5.20;;;0.95;;
57155;SDS011;43023;59.928;10.682;2023-02-25T16:44:15;3.88;;;0.82;;
57155;SDS011;43023;59.928;10.682;2023-02-25T16:46:42;3.47;;;0.90;;
57155;SDS011;43023;59.928;10.682;2023-02-25T16:49:17;3.85;;;0.80;;
57155;SDS011;43023;59.928;10.682;2023-02-25T16:51:44;4.57;;;1.13;;
57155;SDS011;43023;59.928;10.682;2023-02-25T16:54:16;1.52;;;0.45;;
57155;SDS011;43023;59.928;10.682;2023-02-25T16:56:44;3.28;;;0.90;;
57155;SDS011;43023;59.928;10.682;2023-02-25T17:01:38;1.40;;;0.70;;
57155;SDS011;43023;59.928;10.682;2023-02-25T17:06:33;4.43;;;0.80;;
57155;SDS011;43023;59.928;10.682;2023-02-25T17:08:59;2.50;;;0.77;;
57155;SDS011;43023;59.928;10.682;2023-02-25T17:11:25;3.55;;;1.08;;
57155;SDS011;43023;59.928;10.682;2023-02-25T17:13:52;4.80;;;0.77;;
57155;SDS011;43023;59.928;10.682;2023-02-25T17:16:29;4.90;;;0.73;;
57155;SDS011;43023;59.928;10.682;2023-02-25T17:18:57;3.38;;;0.70;;
57155;SDS011;43023;59.928;10.682;2023-02-25T17:21:27;2.30;;;0.60;;
57155;SDS011;43023;59.928;10.682;2023-02-25T17:23:54;4.30;;;1.15;;
57155;SDS011;43023;59.928;10.682;2023-02-25T17:26:21;3.95;;;0.85;;
57155;SDS011;43023;59.928;10.682;2023-02-25T17:28:48;1.90;;;0.88;;
57155;SDS011;43023;59.928;10.682;2023-02-25T17:31:17;2.88;;;0.88;;
57155;SDS011;43023;59.928;10.682;2023-02-25T17:33:46;3.72;;;1.00;;
57155;SDS011;43023;59.928;10.682;2023-02-25T17:36:12;2.25;;;0.70;;
57155;SDS011;43023;59.928;10.682;2023-02-25T17:38:41;6.18;;;1.23;;
57155;SDS011;43023;59.928;10.682;2023-02-25T17:41:08;4.80;;;1.33;;
57155;SDS011;43023;59.928;10.682;2023-02-25T17:43:39;2.72;;;0.80;;
57155;SDS011;43023;59.928;10.682;2023-02-25T17:48:54;5.70;;;0.75;;
57155;SDS011;43023;59.928;10.682;2023-02-25T17:51:27;3.53;;;0.60;;
57155;SDS011;43023;59.928;10.682;2023-02-25T17:53:55;3.42;;;0.45;;
57155;SDS011;43023;59.928;10.682;2023-02-25T17:56:26;1.45;;;0.30;;
57155;SDS011;43023;59.928;10.682;2023-02-25T17:58:53;3.72;;;0.88;;
57155;SDS011;43023;59.928;10.682;2023-02-25T18:01:24;0.57;;;0.45;;
57155;SDS011;43023;59.928;10.682;2023-02-25T18:03:51;3.15;;;0.95;;
57155;SDS011;43023;59.928;10.682;2023-02-25T18:09:02;4.95;;;1.10;;
57155;SDS011;43023;59.928;10.682;2023-02-25T18:11:36;2.63;;;1.10;;
57155;SDS011;43023;59.928;10.682;2023-02-25T18:16:47;3.80;;;1.08;;
57155;SDS011;43023;59.928;10.682;2023-02-25T18:19:26;4.28;;;1.00;;
57155;SDS011;43023;59.928;10.682;2023-02-25T18:21:52;6.45;;;1.13;;
57155;SDS011;43023;59.928;10.682;2023-02-25T18:24:23;4.53;;;1.33;;
57155;SDS011;43023;59.928;10.682;2023-02-25T18:27:06;2.40;;;0.65;;
57155;SDS011;43023;59.928;10.682;2023-02-25T18:29:32;2.42;;;1.10;;
57155;SDS011;43023;59.928;10.682;2023-02-25T18:31:59;3.75;;;1.10;;
57155;SDS011;43023;59.928;10.682;2023-02-25T18:34:25;3.83;;;1.02;;
57155;SDS011;43023;59.928;10.682;2023-02-25T18:36:51;3.03;;;0.80;;
57155;SDS011;43023;59.928;10.682;2023-02-25T18:39:17;3.50;;;0.93;;
57155;SDS011;43023;59.928;10.682;2023-02-25T18:41:44;0.82;;;0.70;;
57155;SDS011;43023;59.928;10.682;2023-02-25T18:44:14;2.97;;;1.02;;
57155;SDS011;43023;59.928;10.682;2023-02-25T18:46:40;6.60;;;0.82;;
57155;SDS011;43023;59.928;10.682;2023-02-25T18:49:06;3.90;;;0.88;;
57155;SDS011;43023;59.928;10.682;2023-02-25T18:51:32;4.63;;;1.08;;
57155;SDS011;43023;59.928;10.682;2023-02-25T18:53:58;6.00;;;1.00;;
57155;SDS011;43023;59.928;10.682;2023-02-25T18:56:24;11.10;;;1.27;;